createdAt,value
2023-01-07T00:01:09.518Z,3.87
2023-01-07T00:03:36.212Z,4.17
2023-01-07T00:06:16.383Z,3.70
2023-01-07T00:08:44.063Z,4.10
2023-01-07T00:11:16.032Z,4.67
2023-01-07T00:13:43.126Z,4.30
2023-01-07T00:16:14.830Z,4.27
2023-01-07T00:18:41.734Z,4.00
2023-01-07T00:21:09.579Z,4.27
2023-01-07T00:23:36.991Z,4.03
2023-01-07T00:26:08.746Z,4.33
2023-01-07T00:28:37.131Z,4.20
2023-01-07T00:31:05.320Z,4.53
2023-01-07T00:33:34.587Z,4.50
2023-01-07T00:36:03.389Z,4.90
2023-01-07T00:38:29.608Z,4.53
2023-01-07T00:40:55.866Z,4.73
2023-01-07T00:43:21.990Z,5.20
2023-01-07T00:45:48.285Z,5.33
2023-01-07T00:48:14.707Z,5.10
2023-01-07T00:50:40.754Z,5.07
2023-01-07T00:53:06.853Z,4.80
2023-01-07T00:55:32.919Z,5.17
2023-01-07T00:57:59.060Z,4.87
2023-01-07T01:00:25.640Z,4.60
2023-01-07T01:02:52.599Z,4.77
2023-01-07T01:05:19.338Z,5.10
2023-01-07T01:07:45.596Z,5.07
2023-01-07T01:10:14.595Z,4.67
2023-01-07T01:12:41.119Z,5.00
2023-01-07T01:15:10.944Z,5.03
2023-01-07T01:17:37.331Z,5.80
2023-01-07T01:20:04.325Z,5.37
2023-01-07T01:22:30.490Z,5.40
2023-01-07T01:24:56.695Z,5.30
2023-01-07T01:27:22.711Z,5.13
2023-01-07T01:29:48.834Z,5.70
2023-01-07T01:32:14.918Z,5.57
2023-01-07T01:34:41.047Z,5.13
2023-01-07T01:37:07.152Z,5.50
2023-01-07T01:39:33.222Z,5.67
2023-01-07T01:41:59.275Z,5.30
2023-01-07T01:44:43.519Z,5.00
2023-01-07T01:47:23.926Z,4.70
2023-01-07T01:49:56.180Z,5.43
2023-01-07T01:52:29.420Z,6.30
2023-01-07T01:54:59.557Z,4.83
2023-01-07T01:57:28.315Z,5.50
2023-01-07T01:59:55.374Z,4.53
2023-01-07T02:02:35.308Z,5.00
2023-01-07T02:05:02.151Z,5.10
2023-01-07T02:07:28.243Z,5.63
2023-01-07T02:10:09.595Z,5.40
2023-01-07T02:12:42.416Z,5.47
2023-01-07T02:15:19.428Z,6.00
2023-01-07T02:18:02.931Z,5.47
2023-01-07T02:21:20.974Z,5.60
2023-01-07T02:24:15.011Z,5.90
2023-01-07T02:26:52.959Z,5.90
2023-01-07T02:29:43.887Z,6.77
2023-01-07T02:32:34.216Z,6.20
2023-01-07T02:35:05.138Z,6.23
2023-01-07T02:37:37.168Z,7.60
2023-01-07T02:40:12.624Z,7.07
2023-01-07T02:43:06.064Z,7.60
2023-01-07T02:45:38.371Z,7.70
2023-01-07T02:48:12.893Z,7.63
2023-01-07T02:50:39.027Z,7.60
2023-01-07T02:53:07.546Z,7.73
2023-01-07T02:55:50.248Z,7.90
2023-01-07T02:58:31.536Z,7.50
2023-01-07T03:01:09.898Z,7.73
2023-01-07T03:03:57.558Z,6.90
2023-01-07T03:06:32.695Z,7.40
2023-01-07T03:09:03.659Z,6.80
2023-01-07T03:11:41.061Z,7.43
2023-01-07T03:14:22.492Z,7.47
2023-01-07T03:16:57.993Z,7.43
2023-01-07T03:19:28.186Z,7.37
2023-01-07T03:21:55.509Z,7.70
2023-01-07T03:24:23.131Z,7.40
2023-01-07T03:26:51.766Z,7.57
2023-01-07T03:29:18.479Z,8.00
2023-01-07T03:31:54.957Z,7.13
2023-01-07T03:34:22.795Z,8.00
2023-01-07T03:37:02.088Z,7.17
2023-01-07T03:39:29.568Z,8.20
2023-01-07T03:42:14.182Z,6.83
2023-01-07T03:44:40.968Z,7.47
2023-01-07T03:47:07.973Z,7.07
2023-01-07T03:49:34.574Z,6.70
2023-01-07T03:52:00.816Z,7.10
2023-01-07T03:54:26.862Z,6.90
2023-01-07T03:56:52.925Z,7.17
2023-01-07T03:59:19.094Z,7.50
2023-01-07T04:01:45.330Z,6.77
2023-01-07T04:04:11.492Z,6.90
2023-01-07T04:06:37.587Z,6.67
2023-01-07T04:09:03.630Z,6.20
2023-01-07T04:11:29.664Z,7.23
2023-01-07T04:13:59.839Z,6.80
2023-01-07T04:16:26.676Z,6.63
2023-01-07T04:18:52.748Z,6.10
2023-01-07T04:21:18.963Z,6.50
2023-01-07T04:23:45.016Z,6.80
2023-01-07T04:26:11.074Z,6.20
2023-01-07T04:28:37.120Z,6.40
2023-01-07T04:31:03.224Z,6.50
2023-01-07T04:33:29.265Z,6.80
2023-01-07T04:35:57.022Z,6.40
2023-01-07T04:38:23.246Z,6.27
2023-01-07T04:40:49.384Z,6.50
2023-01-07T04:43:15.527Z,6.17
2023-01-07T04:45:41.644Z,6.07
2023-01-07T04:48:07.716Z,6.37
2023-01-07T04:50:33.836Z,6.50
2023-01-07T04:53:00.041Z,6.30
2023-01-07T04:55:26.066Z,5.90
2023-01-07T04:57:52.105Z,6.53
2023-01-07T05:00:18.273Z,6.27
2023-01-07T05:02:44.349Z,5.70
2023-01-07T05:05:10.443Z,6.53
2023-01-07T05:07:36.749Z,6.60
2023-01-07T05:10:03.453Z,6.30
2023-01-07T05:12:33.165Z,6.10
2023-01-07T05:14:59.198Z,6.33
2023-01-07T05:17:25.299Z,5.13
2023-01-07T05:19:52.284Z,5.80
2023-01-07T05:22:18.453Z,8.03
2023-01-07T05:24:44.496Z,5.87
2023-01-07T05:27:10.560Z,6.57
2023-01-07T05:29:36.755Z,5.47
2023-01-07T05:32:03.045Z,5.03
2023-01-07T05:34:29.146Z,5.23
2023-01-07T05:36:55.222Z,5.03
2023-01-07T05:39:21.307Z,4.90
2023-01-07T05:41:47.707Z,5.20
2023-01-07T05:44:13.874Z,4.83
2023-01-07T05:46:39.991Z,5.43
2023-01-07T05:49:06.304Z,5.00
2023-01-07T05:51:32.609Z,4.70
2023-01-07T05:53:58.671Z,4.80
2023-01-07T05:56:24.715Z,5.20
2023-01-07T05:58:50.782Z,4.20
2023-01-07T06:01:16.902Z,4.80
2023-01-07T06:03:43.169Z,4.17
2023-01-07T06:06:09.273Z,4.80
2023-01-07T06:08:36.818Z,5.03
2023-01-07T06:11:04.328Z,4.67
2023-01-07T06:13:31.101Z,5.00
2023-01-07T06:16:07.816Z,4.23
2023-01-07T06:18:34.545Z,4.13
2023-01-07T06:21:00.807Z,4.83
2023-01-07T06:23:26.944Z,4.57
2023-01-07T06:25:53.043Z,4.10
2023-01-07T06:28:19.123Z,4.20
2023-01-07T06:30:45.939Z,4.33
2023-01-07T06:33:12.668Z,4.50
2023-01-07T06:35:39.103Z,4.33
2023-01-07T06:38:05.295Z,4.47
2023-01-07T06:40:31.595Z,4.70
2023-01-07T06:42:57.706Z,4.63
2023-01-07T06:45:23.832Z,4.20
2023-01-07T06:47:49.949Z,3.93
2023-01-07T06:50:16.483Z,4.00
2023-01-07T06:52:42.641Z,8.20
2023-01-07T06:55:09.322Z,5.47
2023-01-07T06:57:35.951Z,3.87
2023-01-07T07:00:03.021Z,4.10
2023-01-07T07:02:29.430Z,5.10
2023-01-07T07:04:55.559Z,3.97
2023-01-07T07:07:21.649Z,4.83
2023-01-07T07:09:49.822Z,3.97
2023-01-07T07:12:16.048Z,3.90
2023-01-07T07:14:42.099Z,4.20
2023-01-07T07:17:08.460Z,3.90
2023-01-07T07:19:34.498Z,4.17
2023-01-07T07:22:01.013Z,3.73
2023-01-07T07:24:28.027Z,3.70
2023-01-07T07:26:54.094Z,3.83
2023-01-07T07:29:21.726Z,3.77
2023-01-07T07:31:47.968Z,3.90
2023-01-07T07:34:14.051Z,4.20
2023-01-07T07:36:40.184Z,3.90
2023-01-07T07:39:06.366Z,3.23
2023-01-07T07:41:32.433Z,3.10
2023-01-07T07:43:58.490Z,3.47
2023-01-07T07:46:24.559Z,3.37
2023-01-07T07:48:50.763Z,3.80
2023-01-07T07:51:17.282Z,3.60
2023-01-07T07:53:43.376Z,3.03
2023-01-07T07:56:09.559Z,3.93
2023-01-07T07:58:35.708Z,2.63
2023-01-07T08:01:01.814Z,3.30
2023-01-07T08:03:28.041Z,3.50
2023-01-07T08:05:54.147Z,3.22
2023-01-07T08:08:20.262Z,2.87
2023-01-07T08:10:46.359Z,3.50
2023-01-07T08:13:12.432Z,3.37
2023-01-07T08:15:38.698Z,3.47
2023-01-07T08:18:07.635Z,3.00
2023-01-07T08:20:35.128Z,3.37
2023-01-07T08:23:02.284Z,5.93
2023-01-07T08:25:30.234Z,4.20
2023-01-07T08:27:56.981Z,5.20
2023-01-07T08:30:23.681Z,3.13
2023-01-07T08:32:49.883Z,3.20
2023-01-07T08:35:16.065Z,3.60
2023-01-07T08:37:42.514Z,3.70
2023-01-07T08:40:09.904Z,3.33
2023-01-07T08:42:35.957Z,3.47
2023-01-07T08:45:02.404Z,7.03
2023-01-07T08:47:28.492Z,3.63
2023-01-07T08:49:54.702Z,2.90
2023-01-07T08:52:21.664Z,3.00
2023-01-07T08:54:48.582Z,3.37
2023-01-07T08:57:15.515Z,3.80
2023-01-07T08:59:42.853Z,3.50
2023-01-07T09:02:18.955Z,3.10
2023-01-07T09:04:45.070Z,3.60
2023-01-07T09:07:11.475Z,2.83
2023-01-07T09:09:37.947Z,3.40
2023-01-07T09:12:05.699Z,3.20
2023-01-07T09:14:31.910Z,3.80
2023-01-07T09:16:58.000Z,3.10
2023-01-07T09:19:37.318Z,3.00
2023-01-07T09:22:03.466Z,2.70
2023-01-07T09:24:29.533Z,3.20
2023-01-07T09:26:55.683Z,3.23
2023-01-07T09:29:21.755Z,2.80
2023-01-07T09:31:48.016Z,2.90
2023-01-07T09:34:14.170Z,2.90
2023-01-07T09:36:41.054Z,2.93
2023-01-07T09:39:10.192Z,2.70
2023-01-07T09:41:51.492Z,2.60
2023-01-07T09:44:49.760Z,2.40
2023-01-07T09:47:17.901Z,3.30
2023-01-07T09:49:46.150Z,3.20
2023-01-07T09:52:17.769Z,2.40
2023-01-07T09:54:45.516Z,2.83
2023-01-07T09:57:15.171Z,2.53
2023-01-07T09:59:41.451Z,2.90
2023-01-07T10:02:25.634Z,3.23
2023-01-07T10:05:19.822Z,2.60
2023-01-07T10:08:29.268Z,3.10
2023-01-07T10:11:01.194Z,2.43
2023-01-07T10:13:39.552Z,2.63
2023-01-07T10:16:21.756Z,2.60
2023-01-07T10:19:13.529Z,2.43
2023-01-07T10:21:44.179Z,2.33
2023-01-07T10:24:17.789Z,2.37
2023-01-07T10:26:47.729Z,2.53
2023-01-07T10:29:19.488Z,1.93
2023-01-07T10:31:46.321Z,1.90
2023-01-07T10:34:15.625Z,1.60
2023-01-07T10:37:15.241Z,1.60
2023-01-07T10:39:59.620Z,1.20
2023-01-07T10:42:29.382Z,1.20
2023-01-07T10:45:01.874Z,1.80
2023-01-07T10:48:06.394Z,1.60
2023-01-07T10:50:44.642Z,1.30
2023-01-07T10:53:28.065Z,1.30
2023-01-07T10:56:07.072Z,0.80
2023-01-07T10:58:38.950Z,1.10
2023-01-07T11:01:07.169Z,0.97
2023-01-07T11:03:33.916Z,1.00
2023-01-07T11:06:05.508Z,1.03
2023-01-07T11:08:39.989Z,1.33
2023-01-07T11:11:12.391Z,1.30
2023-01-07T11:13:38.880Z,0.93
2023-01-07T11:16:13.309Z,1.37
2023-01-07T11:19:04.597Z,1.00
2023-01-07T11:21:43.290Z,0.90
2023-01-07T11:24:30.600Z,0.70
2023-01-07T11:27:14.719Z,0.70
2023-01-07T11:29:54.882Z,0.80
2023-01-07T11:32:27.111Z,0.77
2023-01-07T11:35:02.866Z,0.97
2023-01-07T11:37:38.960Z,1.53
2023-01-07T11:40:14.197Z,0.90
2023-01-07T11:42:52.535Z,0.40
2023-01-07T11:45:19.970Z,0.50
2023-01-07T11:48:04.107Z,0.70
2023-01-07T11:50:43.420Z,0.77
2023-01-07T11:53:15.862Z,0.60
2023-01-07T11:56:02.364Z,0.83
2023-01-07T11:58:31.479Z,1.40
2023-01-07T12:01:03.836Z,1.57
2023-01-07T12:03:30.081Z,1.30
2023-01-07T12:05:57.389Z,0.90
2023-01-07T12:08:26.374Z,0.77
2023-01-07T12:10:57.000Z,1.00
2023-01-07T12:13:26.657Z,0.97
2023-01-07T12:16:01.651Z,0.80
2023-01-07T12:18:42.736Z,0.90
2023-01-07T12:21:18.500Z,0.70
2023-01-07T12:23:55.666Z,0.80
2023-01-07T12:26:35.026Z,0.70
2023-01-07T12:29:25.470Z,0.70
2023-01-07T12:32:07.772Z,0.80
2023-01-07T12:34:40.315Z,0.90
2023-01-07T12:37:44.890Z,0.83
2023-01-07T12:40:18.845Z,0.83
2023-01-07T12:42:55.646Z,1.10
2023-01-07T12:45:40.383Z,1.00
2023-01-07T12:48:32.387Z,0.97
2023-01-07T12:50:59.241Z,0.93
2023-01-07T12:53:28.369Z,2.07
2023-01-07T12:56:00.080Z,3.17
2023-01-07T12:58:42.890Z,4.73
2023-01-07T13:01:19.913Z,1.00
2023-01-07T13:03:53.771Z,1.10
2023-01-07T13:06:26.033Z,1.23
2023-01-07T13:09:29.668Z,1.13
2023-01-07T13:12:40.914Z,1.23
2023-01-07T13:15:25.756Z,1.20
2023-01-07T13:17:54.700Z,1.20
2023-01-07T13:20:58.888Z,1.00
2023-01-07T13:23:39.563Z,0.90
2023-01-07T13:26:14.776Z,0.77
2023-01-07T13:28:51.458Z,0.90
2023-01-07T13:31:36.483Z,0.80
2023-01-07T13:34:21.918Z,0.83
2023-01-07T13:37:06.860Z,0.80
2023-01-07T13:39:36.639Z,1.27
2023-01-07T13:42:22.441Z,0.87
2023-01-07T13:45:19.196Z,0.90
2023-01-07T13:47:49.826Z,0.70
2023-01-07T13:50:21.982Z,0.93
2023-01-07T13:53:14.394Z,0.90
2023-01-07T13:55:43.122Z,1.10
2023-01-07T13:58:28.053Z,0.90
2023-01-07T14:01:05.371Z,1.10
2023-01-07T14:03:46.938Z,0.93
2023-01-07T14:06:23.196Z,1.00
2023-01-07T14:08:52.848Z,1.03
2023-01-07T14:11:35.368Z,0.97
2023-01-07T14:14:28.073Z,0.93
2023-01-07T14:17:20.199Z,1.10
2023-01-07T14:19:46.299Z,1.00
2023-01-07T14:22:48.255Z,0.83
2023-01-07T14:25:32.766Z,0.90
2023-01-07T14:28:22.135Z,1.20
2023-01-07T14:30:49.947Z,1.00
2023-01-07T14:33:24.699Z,1.07
2023-01-07T14:35:56.764Z,0.97
2023-01-07T14:38:28.835Z,1.10
2023-01-07T14:41:03.860Z,1.10
2023-01-07T14:43:45.093Z,1.00
2023-01-07T14:46:23.067Z,0.90
2023-01-07T14:49:01.210Z,0.93
2023-01-07T14:51:45.076Z,0.90
2023-01-07T14:54:39.015Z,1.03
2023-01-07T14:57:25.350Z,1.13
2023-01-07T15:00:19.343Z,0.90
2023-01-07T15:03:30.591Z,1.10
2023-01-07T15:06:11.050Z,4.23
2023-01-07T15:09:01.935Z,1.80
2023-01-07T15:11:49.709Z,8.97
2023-01-07T15:14:47.878Z,1.17
2023-01-07T15:17:14.988Z,1.20
2023-01-07T15:19:42.205Z,1.53
2023-01-07T15:22:12.620Z,1.50
2023-01-07T15:25:06.734Z,1.43
2023-01-07T15:27:53.819Z,1.57
2023-01-07T15:30:33.336Z,2.43
2023-01-07T15:33:23.585Z,3.50
2023-01-07T15:35:50.330Z,2.17
2023-01-07T15:38:50.606Z,1.53
2023-01-07T15:41:27.813Z,1.17
2023-01-07T15:43:54.587Z,1.30
2023-01-07T15:46:22.118Z,1.50
2023-01-07T15:49:13.367Z,1.50
2023-01-07T15:51:44.450Z,1.47
2023-01-07T15:54:37.486Z,1.43
2023-01-07T15:57:08.350Z,1.47
2023-01-07T15:59:37.691Z,1.53
2023-01-07T16:02:12.469Z,1.53
2023-01-07T16:04:41.192Z,2.03
2023-01-07T16:07:18.379Z,1.70
2023-01-07T16:09:44.423Z,1.93
2023-01-07T16:12:29.269Z,6.50
2023-01-07T16:14:55.572Z,3.90
2023-01-07T16:17:21.722Z,2.60
2023-01-07T16:19:47.802Z,1.50
2023-01-07T16:22:16.958Z,1.50
2023-01-07T16:24:51.121Z,1.17
2023-01-07T16:27:25.572Z,1.40
2023-01-07T16:29:54.384Z,1.67
2023-01-07T16:32:21.624Z,1.30
2023-01-07T16:35:09.125Z,1.70
2023-01-07T16:37:37.927Z,1.50
2023-01-07T16:40:05.565Z,1.50
2023-01-07T16:42:31.729Z,1.50
2023-01-07T16:44:58.851Z,1.83
2023-01-07T16:47:25.424Z,1.70
2023-01-07T16:50:11.135Z,1.67
2023-01-07T16:52:54.139Z,1.80
2023-01-07T16:55:46.035Z,1.80
2023-01-07T16:58:26.536Z,1.90
2023-01-07T17:00:54.510Z,1.80
2023-01-07T17:03:20.983Z,1.50
2023-01-07T17:06:04.808Z,1.60
2023-01-07T17:08:31.632Z,2.10
2023-01-07T17:11:01.649Z,1.70
2023-01-07T17:13:33.939Z,1.80
2023-01-07T17:16:25.813Z,1.70
2023-01-07T17:18:53.123Z,1.50
2023-01-07T17:21:39.418Z,1.60
2023-01-07T17:24:20.641Z,1.93
2023-01-07T17:26:47.145Z,1.80
2023-01-07T17:29:16.244Z,1.57
2023-01-07T17:31:43.080Z,1.83
2023-01-07T17:34:15.336Z,1.60
2023-01-07T17:36:41.462Z,1.97
2023-01-07T17:39:07.612Z,1.57
2023-01-07T17:41:53.712Z,2.20
2023-01-07T17:44:19.909Z,2.10
2023-01-07T17:46:45.940Z,1.80
2023-01-07T17:49:12.038Z,1.70
2023-01-07T17:51:40.944Z,1.80
2023-01-07T17:54:09.871Z,2.20
2023-01-07T17:56:35.906Z,1.97
2023-01-07T17:59:01.936Z,1.60
2023-01-07T18:01:28.153Z,1.90
2023-01-07T18:03:54.438Z,2.10
2023-01-07T18:06:23.809Z,2.13
2023-01-07T18:08:51.033Z,2.13
2023-01-07T18:11:41.115Z,1.73
2023-01-07T18:14:07.699Z,2.43
2023-01-07T18:16:33.882Z,2.53
2023-01-07T18:19:00.135Z,2.30
2023-01-07T18:21:26.424Z,2.87
2023-01-07T18:23:52.504Z,2.80
2023-01-07T18:26:18.820Z,2.40
2023-01-07T18:28:46.430Z,5.60
2023-01-07T18:31:12.880Z,7.03
2023-01-07T18:33:38.996Z,14.80
2023-01-07T18:36:05.460Z,5.43
2023-01-07T18:38:31.589Z,1.80
2023-01-07T18:40:57.731Z,2.47
2023-01-07T18:43:23.768Z,2.33
2023-01-07T18:45:50.166Z,1.90
2023-01-07T18:48:18.269Z,2.53
2023-01-07T18:50:46.453Z,2.40
2023-01-07T18:53:13.285Z,36.20
2023-01-07T18:55:40.881Z,5.17
2023-01-07T18:58:07.523Z,3.03
2023-01-07T19:00:34.079Z,2.87
2023-01-07T19:03:00.730Z,2.80
2023-01-07T19:05:27.889Z,2.63
2023-01-07T19:07:56.996Z,2.40
2023-01-07T19:10:24.687Z,6.27
2023-01-07T19:12:51.107Z,4.40
2023-01-07T19:15:17.551Z,2.60
2023-01-07T19:17:43.632Z,4.57
2023-01-07T19:20:11.729Z,3.17
2023-01-07T19:22:37.774Z,7.63
2023-01-07T19:25:04.180Z,6.40
2023-01-07T19:27:30.223Z,2.90
2023-01-07T19:29:56.276Z,7.90
2023-01-07T19:32:22.352Z,10.37
2023-01-07T19:34:51.542Z,8.00
2023-01-07T19:37:17.951Z,3.80
2023-01-07T19:39:44.023Z,4.20
2023-01-07T19:42:11.983Z,4.80
2023-01-07T19:44:38.143Z,13.90
2023-01-07T19:47:04.279Z,13.00
2023-01-07T19:49:30.343Z,6.93
2023-01-07T19:51:56.997Z,21.80
2023-01-07T19:54:23.052Z,54.13
2023-01-07T19:56:49.280Z,40.13
2023-01-07T19:59:15.307Z,19.77
2023-01-07T20:01:41.550Z,7.77
2023-01-07T20:04:08.014Z,6.63
2023-01-07T20:06:37.931Z,17.10
2023-01-07T20:09:09.763Z,11.37
2023-01-07T20:11:39.814Z,3.47
2023-01-07T20:14:09.882Z,26.87
2023-01-07T20:16:38.061Z,16.77
